sensor_id;sensor_type;location;lat;lon;timestamp;P1;durP1;ratioP1;P2;durP2;ratioP2
23732;SDS011;12047;53.450;-2.286;2023-05-07T00:00:43;16.48;;;13.27;;
23732;SDS011;12047;53.450;-2.286;2023-05-07T00:05:43;18.52;;;14.27;;
23732;SDS011;12047;53.450;-2.286;2023-05-07T00:10:44;18.15;;;14.60;;
23732;SDS011;12047;53.450;-2.286;2023-05-07T00:15:44;22.13;;;15.95;;
23732;SDS011;12047;53.450;-2.286;2023-05-07T00:20:45;19.17;;;15.70;;
23732;SDS011;12047;53.450;-2.286;2023-05-07T00:25:45;21.70;;;17.27;;
23732;SDS011;12047;53.450;-2.286;2023-05-07T00:30:46;21.90;;;16.55;;
23732;SDS011;12047;53.450;-2.286;2023-05-07T00:35:46;28.98;;;20.33;;
23732;SDS011;12047;53.450;-2.286;2023-05-07T00:40:47;25.27;;;20.02;;
23732;SDS011;12047;53.450;-2.286;2023-05-07T00:45:47;25.55;;;20.55;;
23732;SDS011;12047;53.450;-2.286;2023-05-07T00:50:48;25.63;;;21.35;;
23732;SDS011;12047;53.450;-2.286;2023-05-07T00:55:49;28.05;;;21.92;;
23732;SDS011;12047;53.450;-2.286;2023-05-07T01:00:49;31.67;;;21.20;;
23732;SDS011;12047;53.450;-2.286;2023-05-07T01:05:50;28.80;;;21.98;;
23732;SDS011;12047;53.450;-2.286;2023-05-07T01:10:52;25.75;;;19.45;;
23732;SDS011;12047;53.450;-2.286;2023-05-07T01:15:53;24.65;;;20.25;;
23732;SDS011;12047;53.450;-2.286;2023-05-07T01:20:54;26.70;;;20.50;;
23732;SDS011;12047;53.450;-2.286;2023-05-07T01:25:58;28.13;;;21.27;;
23732;SDS011;12047;53.450;-2.286;2023-05-07T02:46:48;30.42;;;22.70;;
23732;SDS011;12047;53.450;-2.286;2023-05-07T02:51:49;34.08;;;23.63;;
23732;SDS011;12047;53.450;-2.286;2023-05-07T02:56:49;33.33;;;24.15;;
23732;SDS011;12047;53.450;-2.286;2023-05-07T03:01:50;30.13;;;23.15;;
23732;SDS011;12047;53.450;-2.286;2023-05-07T03:06:50;30.67;;;22.65;;
23732;SDS011;12047;53.450;-2.286;2023-05-07T03:11:51;30.38;;;22.60;;
23732;SDS011;12047;53.450;-2.286;2023-05-07T03:16:51;31.33;;;21.48;;
23732;SDS011;12047;53.450;-2.286;2023-05-07T03:21:52;26.92;;;20.48;;
23732;SDS011;12047;53.450;-2.286;2023-05-07T03:26:52;28.15;;;21.15;;
23732;SDS011;12047;53.450;-2.286;2023-05-07T03:31:53;28.42;;;20.30;;
23732;SDS011;12047;53.450;-2.286;2023-05-07T03:36:53;25.85;;;18.92;;
23732;SDS011;12047;53.450;-2.286;2023-05-07T03:41:54;21.75;;;17.40;;
23732;SDS011;12047;53.450;-2.286;2023-05-07T03:46:55;24.98;;;17.65;;
23732;SDS011;12047;53.450;-2.286;2023-05-07T03:51:55;26.98;;;18.60;;
23732;SDS011;12047;53.450;-2.286;2023-05-07T03:56:56;27.33;;;18.80;;
23732;SDS011;12047;53.450;-2.286;2023-05-07T04:01:57;24.88;;;18.80;;
23732;SDS011;12047;53.450;-2.286;2023-05-07T04:06:58;26.85;;;19.25;;
23732;SDS011;12047;53.450;-2.286;2023-05-07T04:12:00;23.27;;;18.35;;
23732;SDS011;12047;53.450;-2.286;2023-05-07T04:17:01;22.80;;;18.55;;
23732;SDS011;12047;53.450;-2.286;2023-05-07T04:22:02;25.80;;;19.60;;
23732;SDS011;12047;53.450;-2.286;2023-05-07T04:27:03;30.73;;;21.55;;
23732;SDS011;12047;53.450;-2.286;2023-05-07T04:32:04;35.53;;;22.90;;
23732;SDS011;12047;53.450;-2.286;2023-05-07T04:37:09;36.50;;;24.17;;
23732;SDS011;12047;53.450;-2.286;2023-05-07T04:42:14;31.65;;;23.98;;
23732;SDS011;12047;53.450;-2.286;2023-05-07T04:47:15;30.25;;;22.40;;
23732;SDS011;12047;53.450;-2.286;2023-05-07T04:52:16;32.67;;;23.45;;
23732;SDS011;12047;53.450;-2.286;2023-05-07T04:57:17;36.70;;;24.38;;
23732;SDS011;12047;53.450;-2.286;2023-05-07T05:02:18;34.58;;;23.00;;
23732;SDS011;12047;53.450;-2.286;2023-05-07T05:07:18;39.55;;;24.42;;
23732;SDS011;12047;53.450;-2.286;2023-05-07T05:12:19;39.33;;;24.83;;
23732;SDS011;12047;53.450;-2.286;2023-05-07T05:17:19;45.55;;;24.48;;
23732;SDS011;12047;53.450;-2.286;2023-05-07T05:22:20;45.55;;;26.42;;
23732;SDS011;12047;53.450;-2.286;2023-05-07T05:27:21;43.33;;;26.10;;
23732;SDS011;12047;53.450;-2.286;2023-05-07T05:32:21;44.30;;;24.47;;
23732;SDS011;12047;53.450;-2.286;2023-05-07T05:37:22;48.55;;;26.90;;
23732;SDS011;12047;53.450;-2.286;2023-05-07T05:42:23;54.55;;;27.73;;
23732;SDS011;12047;53.450;-2.286;2023-05-07T05:47:23;45.13;;;24.85;;
23732;SDS011;12047;53.450;-2.286;2023-05-07T05:52:24;44.08;;;25.27;;
23732;SDS011;12047;53.450;-2.286;2023-05-07T05:57:25;44.30;;;25.20;;
23732;SDS011;12047;53.450;-2.286;2023-05-07T06:02:27;43.70;;;24.05;;
23732;SDS011;12047;53.450;-2.286;2023-05-07T06:07:27;37.20;;;22.40;;
23732;SDS011;12047;53.450;-2.286;2023-05-07T06:12:28;35.92;;;20.95;;
23732;SDS011;12047;53.450;-2.286;2023-05-07T06:17:28;36.70;;;19.83;;
23732;SDS011;12047;53.450;-2.286;2023-05-07T06:22:29;32.65;;;18.17;;
23732;SDS011;12047;53.450;-2.286;2023-05-07T06:27:29;25.67;;;14.32;;
23732;SDS011;12047;53.450;-2.286;2023-05-07T06:32:30;25.08;;;13.85;;
23732;SDS011;12047;53.450;-2.286;2023-05-07T06:37:31;24.50;;;13.52;;
23732;SDS011;12047;53.450;-2.286;2023-05-07T06:42:31;23.77;;;11.05;;
23732;SDS011;12047;53.450;-2.286;2023-05-07T06:47:31;25.85;;;9.13;;
23732;SDS011;12047;53.450;-2.286;2023-05-07T06:52:32;19.88;;;7.32;;
23732;SDS011;12047;53.450;-2.286;2023-05-07T06:57:33;19.25;;;7.35;;
23732;SDS011;12047;53.450;-2.286;2023-05-07T07:02:33;20.05;;;6.57;;
23732;SDS011;12047;53.450;-2.286;2023-05-07T07:07:34;15.85;;;5.95;;
23732;SDS011;12047;53.450;-2.286;2023-05-07T07:12:34;20.67;;;6.30;;
23732;SDS011;12047;53.450;-2.286;2023-05-07T07:17:35;17.35;;;5.53;;
23732;SDS011;12047;53.450;-2.286;2023-05-07T07:22:35;12.48;;;4.55;;
23732;SDS011;12047;53.450;-2.286;2023-05-07T07:27:36;13.43;;;4.65;;
23732;SDS011;12047;53.450;-2.286;2023-05-07T07:32:37;20.02;;;4.85;;
23732;SDS011;12047;53.450;-2.286;2023-05-07T07:37:37;16.88;;;5.15;;
23732;SDS011;12047;53.450;-2.286;2023-05-07T07:42:38;16.20;;;5.72;;
23732;SDS011;12047;53.450;-2.286;2023-05-07T07:47:41;15.45;;;5.22;;
23732;SDS011;12047;53.450;-2.286;2023-05-07T07:52:42;11.60;;;5.00;;
23732;SDS011;12047;53.450;-2.286;2023-05-07T07:57:43;14.32;;;4.22;;
23732;SDS011;12047;53.450;-2.286;2023-05-07T08:02:43;16.67;;;4.95;;
23732;SDS011;12047;53.450;-2.286;2023-05-07T08:07:44;14.65;;;4.38;;
23732;SDS011;12047;53.450;-2.286;2023-05-07T08:12:47;13.50;;;4.32;;
23732;SDS011;12047;53.450;-2.286;2023-05-07T08:17:48;11.55;;;4.10;;
23732;SDS011;12047;53.450;-2.286;2023-05-07T08:22:49;11.27;;;3.70;;
23732;SDS011;12047;53.450;-2.286;2023-05-07T08:27:51;13.02;;;4.50;;
23732;SDS011;12047;53.450;-2.286;2023-05-07T08:32:51;13.98;;;3.97;;
23732;SDS011;12047;53.450;-2.286;2023-05-07T08:37:52;10.43;;;3.42;;
23732;SDS011;12047;53.450;-2.286;2023-05-07T08:42:53;12.00;;;3.70;;
23732;SDS011;12047;53.450;-2.286;2023-05-07T08:47:55;14.20;;;3.78;;
23732;SDS011;12047;53.450;-2.286;2023-05-07T08:52:59;9.93;;;3.63;;
23732;SDS011;12047;53.450;-2.286;2023-05-07T08:58:00;13.07;;;3.75;;
23732;SDS011;12047;53.450;-2.286;2023-05-07T09:03:01;16.20;;;3.60;;
23732;SDS011;12047;53.450;-2.286;2023-05-07T09:08:02;11.82;;;3.65;;
23732;SDS011;12047;53.450;-2.286;2023-05-07T09:13:03;14.65;;;3.97;;
23732;SDS011;12047;53.450;-2.286;2023-05-07T09:18:04;8.55;;;2.90;;
23732;SDS011;12047;53.450;-2.286;2023-05-07T09:23:05;12.80;;;3.75;;
23732;SDS011;12047;53.450;-2.286;2023-05-07T09:28:07;13.40;;;3.95;;
23732;SDS011;12047;53.450;-2.286;2023-05-07T09:33:10;11.65;;;3.65;;
23732;SDS011;12047;53.450;-2.286;2023-05-07T09:38:10;14.27;;;3.67;;
23732;SDS011;12047;53.450;-2.286;2023-05-07T09:43:13;10.35;;;3.40;;
23732;SDS011;12047;53.450;-2.286;2023-05-07T09:48:14;9.68;;;3.58;;
23732;SDS011;12047;53.450;-2.286;2023-05-07T09:53:17;16.02;;;3.80;;
23732;SDS011;12047;53.450;-2.286;2023-05-07T09:58:18;13.30;;;3.67;;
23732;SDS011;12047;53.450;-2.286;2023-05-07T10:03:19;10.40;;;3.47;;
23732;SDS011;12047;53.450;-2.286;2023-05-07T10:08:21;12.60;;;4.18;;
23732;SDS011;12047;53.450;-2.286;2023-05-07T10:13:22;9.18;;;3.75;;
23732;SDS011;12047;53.450;-2.286;2023-05-07T10:18:23;12.80;;;4.60;;
23732;SDS011;12047;53.450;-2.286;2023-05-07T10:23:29;10.25;;;3.97;;
23732;SDS011;12047;53.450;-2.286;2023-05-07T10:28:33;9.82;;;4.10;;
23732;SDS011;12047;53.450;-2.286;2023-05-07T10:33:38;10.95;;;3.75;;
23732;SDS011;12047;53.450;-2.286;2023-05-07T10:38:40;12.65;;;4.38;;
23732;SDS011;12047;53.450;-2.286;2023-05-07T10:43:41;17.52;;;3.95;;
23732;SDS011;12047;53.450;-2.286;2023-05-07T11:04:21;11.88;;;3.70;;
23732;SDS011;12047;53.450;-2.286;2023-05-07T11:09:43;11.43;;;3.00;;
23732;SDS011;12047;53.450;-2.286;2023-05-07T11:14:52;11.55;;;3.55;;
23732;SDS011;12047;53.450;-2.286;2023-05-07T11:19:54;8.23;;;2.90;;
23732;SDS011;12047;53.450;-2.286;2023-05-07T11:24:55;9.10;;;3.08;;
23732;SDS011;12047;53.450;-2.286;2023-05-07T11:30:00;8.07;;;2.55;;
23732;SDS011;12047;53.450;-2.286;2023-05-07T11:35:04;6.68;;;2.70;;
23732;SDS011;12047;53.450;-2.286;2023-05-07T11:40:06;7.05;;;3.05;;
23732;SDS011;12047;53.450;-2.286;2023-05-07T11:45:14;8.50;;;3.20;;
23732;SDS011;12047;53.450;-2.286;2023-05-07T11:50:26;7.82;;;3.15;;
23732;SDS011;12047;53.450;-2.286;2023-05-07T11:55:26;9.93;;;4.00;;
23732;SDS011;12047;53.450;-2.286;2023-05-07T12:00:27;8.50;;;3.83;;
23732;SDS011;12047;53.450;-2.286;2023-05-07T12:05:29;8.93;;;3.53;;
23732;SDS011;12047;53.450;-2.286;2023-05-07T12:10:29;9.98;;;3.75;;
23732;SDS011;12047;53.450;-2.286;2023-05-07T12:15:30;10.05;;;3.70;;
23732;SDS011;12047;53.450;-2.286;2023-05-07T12:20:30;7.32;;;3.63;;
23732;SDS011;12047;53.450;-2.286;2023-05-07T12:25:31;10.10;;;3.30;;
23732;SDS011;12047;53.450;-2.286;2023-05-07T12:30:38;7.28;;;3.50;;
23732;SDS011;12047;53.450;-2.286;2023-05-07T12:35:40;7.78;;;3.50;;
23732;SDS011;12047;53.450;-2.286;2023-05-07T12:40:43;8.85;;;3.75;;
23732;SDS011;12047;53.450;-2.286;2023-05-07T12:45:48;8.48;;;4.05;;
23732;SDS011;12047;53.450;-2.286;2023-05-07T12:50:50;7.30;;;4.07;;
23732;SDS011;12047;53.450;-2.286;2023-05-07T12:55:53;10.57;;;4.43;;
23732;SDS011;12047;53.450;-2.286;2023-05-07T13:00:55;11.52;;;6.50;;
23732;SDS011;12047;53.450;-2.286;2023-05-07T13:05:59;6.80;;;4.80;;
23732;SDS011;12047;53.450;-2.286;2023-05-07T13:11:02;7.82;;;5.20;;
23732;SDS011;12047;53.450;-2.286;2023-05-07T13:16:06;8.52;;;5.40;;
23732;SDS011;12047;53.450;-2.286;2023-05-07T13:21:08;11.25;;;5.80;;
23732;SDS011;12047;53.450;-2.286;2023-05-07T13:26:10;7.35;;;5.55;;
23732;SDS011;12047;53.450;-2.286;2023-05-07T13:31:10;7.88;;;5.43;;
23732;SDS011;12047;53.450;-2.286;2023-05-07T13:36:11;6.88;;;4.93;;
23732;SDS011;12047;53.450;-2.286;2023-05-07T13:41:11;11.48;;;4.85;;
23732;SDS011;12047;53.450;-2.286;2023-05-07T13:46:13;7.00;;;4.32;;
23732;SDS011;12047;53.450;-2.286;2023-05-07T13:51:13;6.13;;;4.07;;
23732;SDS011;12047;53.450;-2.286;2023-05-07T13:56:14;6.60;;;4.28;;
23732;SDS011;12047;53.450;-2.286;2023-05-07T14:01:15;6.57;;;4.38;;
23732;SDS011;12047;53.450;-2.286;2023-05-07T14:06:15;6.07;;;4.22;;
23732;SDS011;12047;53.450;-2.286;2023-05-07T14:11:16;7.93;;;4.13;;
23732;SDS011;12047;53.450;-2.286;2023-05-07T14:16:16;7.18;;;4.05;;
23732;SDS011;12047;53.450;-2.286;2023-05-07T14:21:17;8.93;;;4.22;;
23732;SDS011;12047;53.450;-2.286;2023-05-07T14:26:18;7.30;;;3.22;;
23732;SDS011;12047;53.450;-2.286;2023-05-07T14:31:19;7.47;;;3.40;;
23732;SDS011;12047;53.450;-2.286;2023-05-07T14:36:20;6.30;;;2.78;;
23732;SDS011;12047;53.450;-2.286;2023-05-07T14:41:22;6.40;;;2.78;;
23732;SDS011;12047;53.450;-2.286;2023-05-07T14:46:23;8.00;;;2.90;;
23732;SDS011;12047;53.450;-2.286;2023-05-07T14:51:24;8.30;;;2.60;;
23732;SDS011;12047;53.450;-2.286;2023-05-07T14:56:29;4.22;;;2.40;;
23732;SDS011;12047;53.450;-2.286;2023-05-07T15:01:29;6.25;;;2.45;;
23732;SDS011;12047;53.450;-2.286;2023-05-07T15:06:30;6.68;;;2.35;;
23732;SDS011;12047;53.450;-2.286;2023-05-07T15:11:32;3.45;;;2.20;;
23732;SDS011;12047;53.450;-2.286;2023-05-07T15:16:32;4.85;;;2.10;;
23732;SDS011;12047;53.450;-2.286;2023-05-07T15:21:34;3.33;;;1.70;;
23732;SDS011;12047;53.450;-2.286;2023-05-07T15:26:36;4.68;;;2.13;;
23732;SDS011;12047;53.450;-2.286;2023-05-07T15:31:36;5.30;;;2.03;;
23732;SDS011;12047;53.450;-2.286;2023-05-07T15:36:46;4.45;;;1.98;;
23732;SDS011;12047;53.450;-2.286;2023-05-07T15:41:47;9.77;;;1.92;;
23732;SDS011;12047;53.450;-2.286;2023-05-07T15:46:47;3.95;;;1.42;;
23732;SDS011;12047;53.450;-2.286;2023-05-07T15:51:48;4.65;;;2.00;;
23732;SDS011;12047;53.450;-2.286;2023-05-07T15:56:48;6.10;;;2.47;;
23732;SDS011;12047;53.450;-2.286;2023-05-07T16:01:49;3.03;;;1.65;;
23732;SDS011;12047;53.450;-2.286;2023-05-07T16:06:50;45.42;;;14.02;;
23732;SDS011;12047;53.450;-2.286;2023-05-07T16:11:51;7.22;;;2.75;;
23732;SDS011;12047;53.450;-2.286;2023-05-07T16:16:52;6.18;;;2.70;;
23732;SDS011;12047;53.450;-2.286;2023-05-07T16:21:52;5.32;;;2.50;;
23732;SDS011;12047;53.450;-2.286;2023-05-07T16:26:53;4.43;;;1.88;;
23732;SDS011;12047;53.450;-2.286;2023-05-07T16:31:56;8.27;;;2.00;;
23732;SDS011;12047;53.450;-2.286;2023-05-07T16:36:57;5.90;;;2.03;;
23732;SDS011;12047;53.450;-2.286;2023-05-07T16:41:58;4.95;;;1.92;;
23732;SDS011;12047;53.450;-2.286;2023-05-07T16:46:59;12.45;;;5.00;;
23732;SDS011;12047;53.450;-2.286;2023-05-07T16:52:00;11.98;;;4.53;;
23732;SDS011;12047;53.450;-2.286;2023-05-07T16:57:00;11.30;;;5.13;;
23732;SDS011;12047;53.450;-2.286;2023-05-07T17:02:01;12.25;;;7.03;;
23732;SDS011;12047;53.450;-2.286;2023-05-07T17:07:01;9.32;;;3.38;;
23732;SDS011;12047;53.450;-2.286;2023-05-07T17:12:02;16.40;;;8.52;;
23732;SDS011;12047;53.450;-2.286;2023-05-07T17:17:03;23.75;;;11.05;;
23732;SDS011;12047;53.450;-2.286;2023-05-07T17:22:04;12.68;;;5.40;;
23732;SDS011;12047;53.450;-2.286;2023-05-07T17:27:04;16.25;;;8.63;;
23732;SDS011;12047;53.450;-2.286;2023-05-07T17:32:05;17.27;;;9.90;;
23732;SDS011;12047;53.450;-2.286;2023-05-07T17:37:05;14.63;;;5.83;;
23732;SDS011;12047;53.450;-2.286;2023-05-07T17:42:05;14.05;;;7.45;;
23732;SDS011;12047;53.450;-2.286;2023-05-07T17:47:06;9.90;;;3.80;;
23732;SDS011;12047;53.450;-2.286;2023-05-07T17:52:07;10.10;;;6.15;;
23732;SDS011;12047;53.450;-2.286;2023-05-07T17:57:08;11.18;;;3.88;;
23732;SDS011;12047;53.450;-2.286;2023-05-07T18:02:08;9.18;;;4.18;;
23732;SDS011;12047;53.450;-2.286;2023-05-07T18:07:09;22.25;;;16.15;;
23732;SDS011;12047;53.450;-2.286;2023-05-07T18:12:09;10.45;;;3.70;;
23732;SDS011;12047;53.450;-2.286;2023-05-07T18:17:10;12.63;;;5.85;;
23732;SDS011;12047;53.450;-2.286;2023-05-07T18:22:11;9.57;;;6.10;;
23732;SDS011;12047;53.450;-2.286;2023-05-07T18:27:11;11.75;;;6.72;;
23732;SDS011;12047;53.450;-2.286;2023-05-07T18:32:12;12.82;;;8.07;;
23732;SDS011;12047;53.450;-2.286;2023-05-07T18:37:13;7.03;;;3.20;;
23732;SDS011;12047;53.450;-2.286;2023-05-07T18:42:13;7.00;;;2.92;;
23732;SDS011;12047;53.450;-2.286;2023-05-07T18:47:14;4.20;;;2.25;;
23732;SDS011;12047;53.450;-2.286;2023-05-07T18:52:15;12.82;;;9.23;;
23732;SDS011;12047;53.450;-2.286;2023-05-07T18:57:17;5.30;;;2.42;;
23732;SDS011;12047;53.450;-2.286;2023-05-07T19:02:17;5.13;;;2.80;;
23732;SDS011;12047;53.450;-2.286;2023-05-07T19:07:18;3.83;;;2.17;;
23732;SDS011;12047;53.450;-2.286;2023-05-07T19:12:19;4.32;;;2.22;;
23732;SDS011;12047;53.450;-2.286;2023-05-07T19:17:19;6.50;;;2.17;;
23732;SDS011;12047;53.450;-2.286;2023-05-07T19:22:22;5.47;;;2.15;;
23732;SDS011;12047;53.450;-2.286;2023-05-07T19:27:22;5.13;;;2.03;;
23732;SDS011;12047;53.450;-2.286;2023-05-07T19:32:23;4.60;;;2.45;;
23732;SDS011;12047;53.450;-2.286;2023-05-07T19:37:25;7.22;;;4.50;;
23732;SDS011;12047;53.450;-2.286;2023-05-07T19:42:26;6.60;;;4.25;;
23732;SDS011;12047;53.450;-2.286;2023-05-07T19:47:27;5.43;;;3.88;;
23732;SDS011;12047;53.450;-2.286;2023-05-07T19:52:27;5.45;;;4.05;;
23732;SDS011;12047;53.450;-2.286;2023-05-07T19:57:28;6.18;;;3.05;;
23732;SDS011;12047;53.450;-2.286;2023-05-07T20:02:28;5.53;;;2.78;;
23732;SDS011;12047;53.450;-2.286;2023-05-07T20:07:29;6.00;;;2.60;;
23732;SDS011;12047;53.450;-2.286;2023-05-07T20:12:29;5.68;;;2.80;;
23732;SDS011;12047;53.450;-2.286;2023-05-07T20:17:30;4.75;;;2.65;;
23732;SDS011;12047;53.450;-2.286;2023-05-07T20:22:30;5.80;;;2.97;;
23732;SDS011;12047;53.450;-2.286;2023-05-07T20:27:31;4.45;;;3.25;;
23732;SDS011;12047;53.450;-2.286;2023-05-07T20:32:33;6.35;;;3.25;;
23732;SDS011;12047;53.450;-2.286;2023-05-07T20:37:35;5.72;;;2.90;;
23732;SDS011;12047;53.450;-2.286;2023-05-07T20:42:38;6.57;;;2.97;;
23732;SDS011;12047;53.450;-2.286;2023-05-07T20:47:39;6.55;;;3.53;;
23732;SDS011;12047;53.450;-2.286;2023-05-07T20:52:42;6.10;;;2.70;;
23732;SDS011;12047;53.450;-2.286;2023-05-07T20:57:42;6.75;;;3.08;;
23732;SDS011;12047;53.450;-2.286;2023-05-07T21:02:43;6.18;;;2.55;;
23732;SDS011;12047;53.450;-2.286;2023-05-07T21:07:44;4.63;;;2.90;;
23732;SDS011;12047;53.450;-2.286;2023-05-07T21:12:44;5.30;;;3.03;;
23732;SDS011;12047;53.450;-2.286;2023-05-07T21:17:45;6.67;;;3.40;;
23732;SDS011;12047;53.450;-2.286;2023-05-07T21:22:45;5.33;;;2.83;;
23732;SDS011;12047;53.450;-2.286;2023-05-07T21:27:46;6.93;;;3.15;;
23732;SDS011;12047;53.450;-2.286;2023-05-07T21:32:46;4.97;;;2.88;;
23732;SDS011;12047;53.450;-2.286;2023-05-07T21:37:47;10.35;;;4.07;;
23732;SDS011;12047;53.450;-2.286;2023-05-07T21:42:47;9.33;;;4.33;;
23732;SDS011;12047;53.450;-2.286;2023-05-07T21:47:47;10.50;;;5.78;;
23732;SDS011;12047;53.450;-2.286;2023-05-07T21:52:48;11.45;;;7.40;;
23732;SDS011;12047;53.450;-2.286;2023-05-07T21:57:52;9.57;;;5.72;;
23732;SDS011;12047;53.450;-2.286;2023-05-07T22:02:53;8.05;;;5.32;;
23732;SDS011;12047;53.450;-2.286;2023-05-07T22:07:53;9.27;;;5.07;;
23732;SDS011;12047;53.450;-2.286;2023-05-07T22:12:54;6.40;;;4.43;;
23732;SDS011;12047;53.450;-2.286;2023-05-07T22:17:54;7.30;;;4.53;;
23732;SDS011;12047;53.450;-2.286;2023-05-07T22:22:55;16.33;;;7.65;;
23732;SDS011;12047;53.450;-2.286;2023-05-07T22:27:56;16.83;;;8.02;;
23732;SDS011;12047;53.450;-2.286;2023-05-07T22:32:59;13.82;;;8.40;;
23732;SDS011;12047;53.450;-2.286;2023-05-07T22:38:00;8.55;;;5.13;;
23732;SDS011;12047;53.450;-2.286;2023-05-07T22:43:00;11.02;;;6.60;;
23732;SDS011;12047;53.450;-2.286;2023-05-07T22:48:01;7.85;;;5.63;;
23732;SDS011;12047;53.450;-2.286;2023-05-07T22:53:01;9.48;;;5.80;;
23732;SDS011;12047;53.450;-2.286;2023-05-07T22:58:02;10.57;;;6.47;;
23732;SDS011;12047;53.450;-2.286;2023-05-07T23:03:02;12.95;;;8.82;;
23732;SDS011;12047;53.450;-2.286;2023-05-07T23:08:03;13.10;;;8.18;;
23732;SDS011;12047;53.450;-2.286;2023-05-07T23:13:03;11.35;;;8.43;;
23732;SDS011;12047;53.450;-2.286;2023-05-07T23:18:04;15.20;;;9.15;;
23732;SDS011;12047;53.450;-2.286;2023-05-07T23:23:04;14.27;;;8.45;;
23732;SDS011;12047;53.450;-2.286;2023-05-07T23:28:05;12.70;;;8.05;;
23732;SDS011;12047;53.450;-2.286;2023-05-07T23:33:05;16.98;;;9.60;;
23732;SDS011;12047;53.450;-2.286;2023-05-07T23:38:06;16.70;;;11.45;;
23732;SDS011;12047;53.450;-2.286;2023-05-07T23:43:06;17.23;;;9.63;;
23732;SDS011;12047;53.450;-2.286;2023-05-07T23:48:07;15.95;;;8.95;;
23732;SDS011;12047;53.450;-2.286;2023-05-07T23:53:07;15.57;;;8.68;;
23732;SDS011;12047;53.450;-2.286;2023-05-07T23:58:08;15.85;;;7.68;;
